Fai una donazione per la manutenzione ed il rinnovamento della strumentazione meteorologica e per il sito che la ospita.


Webcam more information Webcam



altri nostri siti meteo:

Previsioni audio clicca per ascoltarePrevisioni audio

RISCHIO INCENDIRischio incendi

PomeziameteoSito sul meteo

MeteopomeziaSito sul meteo

Pomeziameteo DashboardSito sul meteo

Caput FrigorisSito sul meteo

BarcellonameteoSito sul meteo

MeteoipassiSito sul meteo

TortoretometeolidoSito sul meteo

CastelnuovovomanometeoSito sul meteo

MeteogonzagaSito sul meteo

MeteonetworkInvio dai a Meteonetwork

Weather UndergroundInvio dai a Weather Underground

Scarica App android ViterbometeoInvio dai a Weather Underground



Nessuna attenzione richiesta    Non ci sono allerte meteo.

Report METAR

   
LIRV - Viterbo (it-Mil), Italy
Distanza dalla stazione: W 4 km
Dati ricevuti: 17-01-2022 15:55
Sereno  
Sereno  
   Vento: NNW 7.4 km/h
Vento: NNW 7.4 km/h
Temperatura: 13°C
P.to Rugiada: 2°C
Umidita: 47%
Barometro: 1024 hPa
Visibilita: oltre 10 km
dettagli cloud: Sereno
LIRV 171455Z 33004KT CAVOK 13/02 Q1024
LIQN - Rieti, Italy
Distanza dalla stazione: E 59 km
Dati ricevuti: 17-01-2022 15:50
Sereno  
Sereno  
   Vento: Variabile 3.7 km/h
Vento: Variabile 3.7 km/h
Temperatura: 10°C
P.to Rugiada: 4°C
Umidita: 67%
Barometro: 1024 hPa
Visibilita: oltre 10 km
dettagli cloud: Sereno
LIQN 171450Z VRB02KT CAVOK 10/04 Q1024
LIRU - Rome/Urbe (it-Af, Italy
Distanza dalla stazione: S 61 km
Dati ricevuti: 17-01-2022 15:50
Sereno  
Sereno  
   Vento: Nord 9.3 km/h
Vento: Nord 9.3 km/h
Temperatura: 14°C
P.to Rugiada: 5°C
Umidita: 55%
Barometro: 1024 hPa
Visibilita: oltre 10 km
dettagli cloud: Sereno
LIRU 171450Z 35005KT 320V020 CAVOK 14/05 Q1024
LIRG - Guidonia (it-Afb, Italy
Distanza dalla stazione: SE 68 km
Dati ricevuti: 17-01-2022 15:55
Sereno  
Sereno  
   Vento: NO 13 km/h
Vento: NO 13 km/h
Temperatura: 13°C
P.to Rugiada: 4°C
Umidita: 55%
Barometro: 1024 hPa
Visibilita: oltre 10 km
dettagli cloud: Sereno
LIRG 171455Z 31007KT CAVOK 13/04 Q1024
LIRK - Terminillo Mount, Italy
Distanza dalla stazione: E 70 km
Dati ricevuti: 17-01-2022 15:55
  
  
   Vento: SE 7.4 km/h<br />Gust to 7.4 km/h
Vento: SE 7.4 km/h
Gust to 7.4 km/h
Temperatura: 3°C
Temperatura Vento: 1°C
P.to Rugiada: -12°C
Umidita: 33%
Barometro: 1023 hPa
LIRK 171455Z AUTO 12004G16KT //// 03/M12 Q1023
 

Script sviluppato da  Saratoga-weather.org Adattato per il modello da  Weerstation Leuven

Strumentazione usata:

Stazione meteo
Davis VP2

Programma gestore dati meteo
WVIEW

Server per i dati meteo
WDS-5

Davis VP2

WVIEW

WDS-5